createdAt,value
2022-12-01T00:01:40.887Z,1.53
2022-12-01T00:04:14.402Z,1.54
2022-12-01T00:06:45.978Z,1.52
2022-12-01T00:09:31.102Z,1.56
2022-12-01T00:12:06.450Z,1.55
2022-12-01T00:14:38.814Z,1.52
2022-12-01T00:17:11.696Z,1.53
2022-12-01T00:19:42.177Z,1.53
2022-12-01T00:22:12.417Z,1.51
2022-12-01T00:24:45.124Z,1.48
2022-12-01T00:27:15.430Z,1.47
2022-12-01T00:29:45.618Z,1.49
2022-12-01T00:32:18.229Z,1.48
2022-12-01T00:34:48.301Z,1.48
2022-12-01T00:37:21.505Z,1.47
2022-12-01T00:39:56.501Z,1.46
2022-12-01T00:42:26.707Z,1.43
2022-12-01T00:44:59.986Z,1.39
2022-12-01T00:47:31.671Z,1.35
2022-12-01T00:50:04.979Z,1.31
2022-12-01T00:52:38.021Z,1.29
2022-12-01T00:55:13.707Z,1.27
2022-12-01T00:57:43.887Z,1.26
2022-12-01T01:00:19.673Z,1.25
2022-12-01T01:02:52.875Z,1.27
2022-12-01T01:05:23.515Z,1.26
2022-12-01T01:07:53.759Z,1.24
2022-12-01T01:10:36.631Z,1.21
2022-12-01T01:13:06.708Z,1.17
2022-12-01T01:15:37.073Z,1.16
2022-12-01T01:18:12.384Z,1.13
2022-12-01T01:20:42.781Z,1.07
2022-12-01T01:23:12.911Z,1.07
2022-12-01T01:25:48.015Z,1.10
2022-12-01T01:28:18.657Z,1.05
2022-12-01T01:30:51.691Z,1.02
2022-12-01T01:33:22.167Z,1.02
2022-12-01T01:35:54.416Z,0.86
2022-12-01T01:38:24.675Z,1.01
2022-12-01T01:41:03.489Z,1.00
2022-12-01T01:43:48.474Z,0.96
2022-12-01T01:46:23.530Z,0.92
2022-12-01T01:48:57.627Z,0.87
2022-12-01T01:51:31.222Z,0.89
2022-12-01T01:54:05.547Z,0.84
2022-12-01T01:56:39.410Z,0.85
2022-12-01T01:59:10.466Z,0.85
2022-12-01T02:01:40.669Z,0.84
2022-12-01T02:04:11.236Z,0.81
2022-12-01T02:06:41.377Z,0.80
2022-12-01T02:09:13.454Z,0.82
2022-12-01T02:12:11.560Z,0.82
2022-12-01T02:15:06.577Z,0.81
2022-12-01T02:17:43.311Z,0.80
2022-12-01T02:20:35.346Z,0.80
2022-12-01T02:23:27.889Z,0.74
2022-12-01T02:26:19.160Z,0.71
2022-12-01T02:29:09.479Z,0.73
2022-12-01T02:31:49.499Z,0.71
2022-12-01T02:34:28.048Z,0.54
2022-12-01T02:37:03.365Z,0.55
2022-12-01T02:39:38.281Z,0.52
2022-12-01T02:42:35.629Z,0.57
2022-12-01T02:45:09.828Z,0.56
2022-12-01T02:47:45.287Z,0.57
2022-12-01T02:50:16.448Z,0.58
2022-12-01T02:52:49.709Z,0.61
2022-12-01T02:55:19.804Z,0.57
2022-12-01T02:57:50.224Z,0.60
2022-12-01T03:00:21.497Z,0.59
2022-12-01T03:03:24.600Z,0.61
2022-12-01T03:06:02.200Z,0.69
2022-12-01T03:08:46.205Z,0.73
2022-12-01T03:11:29.800Z,0.75
2022-12-01T03:14:11.944Z,0.80
2022-12-01T03:16:52.630Z,0.81
2022-12-01T03:19:35.998Z,0.79
2022-12-01T03:22:16.035Z,0.96
2022-12-01T03:24:50.996Z,0.92
2022-12-01T03:27:28.208Z,0.95
2022-12-01T03:30:04.940Z,0.95
2022-12-01T03:32:41.574Z,0.95
2022-12-01T03:35:19.173Z,0.99
2022-12-01T03:37:54.429Z,1.01
2022-12-01T03:40:28.784Z,1.08
2022-12-01T03:43:02.675Z,1.17
2022-12-01T03:45:44.125Z,1.10
2022-12-01T03:48:23.009Z,1.08
2022-12-01T03:51:08.900Z,1.02
2022-12-01T03:53:48.952Z,1.01
2022-12-01T03:56:23.278Z,1.06
2022-12-01T03:58:59.551Z,1.03
2022-12-01T04:01:36.463Z,0.95
2022-12-01T04:04:08.683Z,0.91
2022-12-01T04:06:43.206Z,0.89
2022-12-01T04:09:13.592Z,0.88
2022-12-01T04:11:58.662Z,0.82
2022-12-01T04:14:32.195Z,0.79
2022-12-01T04:17:05.117Z,0.73
2022-12-01T04:19:37.589Z,0.66
2022-12-01T04:22:13.239Z,0.65
2022-12-01T04:24:45.644Z,0.66
2022-12-01T04:27:16.482Z,0.63
2022-12-01T04:29:47.592Z,0.61
2022-12-01T04:32:24.456Z,0.60
2022-12-01T04:34:56.879Z,0.65
2022-12-01T04:37:29.682Z,0.68
2022-12-01T04:39:59.775Z,0.69
2022-12-01T04:42:30.103Z,0.67
2022-12-01T04:45:00.306Z,0.67
2022-12-01T04:47:30.551Z,0.65
2022-12-01T04:50:00.683Z,0.63
2022-12-01T04:52:35.409Z,0.62
2022-12-01T04:55:08.999Z,0.61
2022-12-01T04:57:39.671Z,0.60
2022-12-01T05:00:13.831Z,0.60
2022-12-01T05:02:44.184Z,0.58
2022-12-01T05:05:14.931Z,0.52
2022-12-01T05:07:48.789Z,0.51
2022-12-01T05:10:21.967Z,0.52
2022-12-01T05:12:52.523Z,0.44
2022-12-01T05:15:22.540Z,0.42
2022-12-01T05:17:55.291Z,0.39
2022-12-01T05:20:40.213Z,0.37
2022-12-01T05:23:17.210Z,0.34
2022-12-01T05:25:50.416Z,0.29
2022-12-01T05:28:27.178Z,0.16
2022-12-01T05:31:01.121Z,0.28
2022-12-01T05:33:31.711Z,0.28
2022-12-01T05:36:02.101Z,0.24
2022-12-01T05:38:34.810Z,0.25
2022-12-01T05:41:05.047Z,0.21
2022-12-01T05:43:35.130Z,0.21
2022-12-01T05:46:05.799Z,0.16
2022-12-01T05:48:35.849Z,0.16
2022-12-01T05:51:14.075Z,0.15
2022-12-01T05:53:49.767Z,0.17
2022-12-01T05:56:21.989Z,0.18
2022-12-01T05:58:55.088Z,0.18
2022-12-01T06:01:25.231Z,0.16
2022-12-01T06:03:56.488Z,0.18
2022-12-01T06:06:26.630Z,0.18
2022-12-01T06:08:59.248Z,0.20
2022-12-01T06:11:31.577Z,0.22
2022-12-01T06:14:09.019Z,0.28
2022-12-01T06:16:41.492Z,0.28
2022-12-01T06:19:14.172Z,0.35
2022-12-01T06:21:46.347Z,0.45
2022-12-01T06:24:19.247Z,0.55
2022-12-01T06:26:51.980Z,0.64
2022-12-01T06:29:22.145Z,0.73
2022-12-01T06:31:55.177Z,0.89
2022-12-01T06:34:25.413Z,1.00
2022-12-01T06:36:57.474Z,1.14
2022-12-01T06:39:30.775Z,1.29
2022-12-01T06:42:00.894Z,1.45
2022-12-01T06:44:31.760Z,1.69
2022-12-01T06:47:01.947Z,1.85
2022-12-01T06:49:32.255Z,2.07
2022-12-01T06:52:02.444Z,2.45
2022-12-01T06:54:39.757Z,3.05
2022-12-01T06:57:12.423Z,3.74
2022-12-01T06:59:42.798Z,4.35
2022-12-01T07:02:14.036Z,4.80
2022-12-01T07:04:44.920Z,5.17
2022-12-01T07:07:15.082Z,5.76
2022-12-01T07:09:51.377Z,6.40
2022-12-01T07:12:26.931Z,6.90
2022-12-01T07:14:58.185Z,7.29
2022-12-01T07:17:28.227Z,7.49
2022-12-01T07:19:58.407Z,7.79
2022-12-01T07:22:32.654Z,8.03
2022-12-01T07:25:09.987Z,8.11
2022-12-01T07:27:40.596Z,8.13
2022-12-01T07:30:12.051Z,8.25
2022-12-01T07:32:43.504Z,8.31
2022-12-01T07:35:13.583Z,7.91
2022-12-01T07:37:45.928Z,7.58
2022-12-01T07:40:19.043Z,7.15
2022-12-01T07:42:49.112Z,7.14
2022-12-01T07:45:19.369Z,7.12
2022-12-01T07:47:49.509Z,7.04
2022-12-01T07:50:19.748Z,6.99
2022-12-01T07:52:52.604Z,7.07
2022-12-01T07:55:25.291Z,6.79
2022-12-01T07:57:55.377Z,6.70
2022-12-01T08:00:26.268Z,6.60
2022-12-01T08:02:56.750Z,6.57
2022-12-01T08:05:27.684Z,6.36
2022-12-01T08:07:58.591Z,6.28
2022-12-01T08:10:33.622Z,6.29
2022-12-01T08:13:03.731Z,6.32
2022-12-01T08:15:33.942Z,6.39
2022-12-01T08:18:07.846Z,6.55
2022-12-01T08:20:37.738Z,6.70
2022-12-01T08:23:08.391Z,6.86
2022-12-01T08:25:41.127Z,7.13
2022-12-01T08:28:11.221Z,7.30
2022-12-01T08:30:44.774Z,7.25
2022-12-01T08:33:14.941Z,7.12
2022-12-01T08:35:49.568Z,7.57
2022-12-01T08:38:19.895Z,7.75
2022-12-01T08:40:52.669Z,7.92
2022-12-01T08:43:49.435Z,8.08
2022-12-01T08:46:21.640Z,8.16
2022-12-01T08:48:51.891Z,8.15
2022-12-01T08:51:25.216Z,8.13
2022-12-01T08:53:58.275Z,8.10
2022-12-01T08:56:34.781Z,8.17
2022-12-01T08:59:05.906Z,8.11
2022-12-01T09:01:52.151Z,8.22
2022-12-01T09:04:23.525Z,8.25
2022-12-01T09:06:57.635Z,8.25
2022-12-01T09:09:30.094Z,8.19
2022-12-01T09:12:03.424Z,8.11
2022-12-01T09:14:33.474Z,8.22
2022-12-01T09:17:03.637Z,8.22
2022-12-01T09:19:34.015Z,8.35
2022-12-01T09:22:04.676Z,8.37
2022-12-01T09:24:37.482Z,8.42
2022-12-01T09:27:22.757Z,8.52
2022-12-01T09:29:55.808Z,8.50
2022-12-01T09:32:26.201Z,8.65
2022-12-01T09:34:56.293Z,8.75
2022-12-01T09:37:29.140Z,8.79
2022-12-01T09:39:59.258Z,9.03
2022-12-01T09:42:35.791Z,9.20
2022-12-01T09:45:10.099Z,9.31
2022-12-01T09:47:42.755Z,9.48
2022-12-01T09:50:18.882Z,9.58
2022-12-01T09:52:53.337Z,9.62
2022-12-01T09:55:26.112Z,9.74
2022-12-01T09:58:01.288Z,9.75
2022-12-01T10:00:36.950Z,9.76
2022-12-01T10:03:24.927Z,9.74
2022-12-01T10:09:01.456Z,9.74
2022-12-01T10:11:38.785Z,9.76
2022-12-01T10:14:20.858Z,9.72
2022-12-01T10:17:03.679Z,9.71
2022-12-01T10:19:42.118Z,9.83
2022-12-01T10:22:27.005Z,9.88
2022-12-01T10:25:09.911Z,9.97
2022-12-01T10:27:51.410Z,9.99
2022-12-01T10:30:26.752Z,10.13
2022-12-01T10:33:01.437Z,10.22
2022-12-01T10:35:37.259Z,10.25
2022-12-01T10:38:18.209Z,10.19
2022-12-01T10:40:50.864Z,10.26
2022-12-01T10:43:20.911Z,10.38
2022-12-01T10:45:57.001Z,10.28
2022-12-01T10:48:32.320Z,10.31
2022-12-01T10:51:20.269Z,10.40
2022-12-01T10:53:50.333Z,10.37
2022-12-01T10:56:23.305Z,10.63
2022-12-01T10:58:55.413Z,10.74
2022-12-01T11:01:35.796Z,10.65
2022-12-01T11:04:11.333Z,10.76
2022-12-01T11:06:41.416Z,10.91
2022-12-01T11:09:26.900Z,10.98
2022-12-01T11:11:59.833Z,11.07
2022-12-01T11:14:40.147Z,10.99
2022-12-01T11:17:29.911Z,11.12
2022-12-01T11:20:00.308Z,11.14
2022-12-01T11:22:40.121Z,11.15
2022-12-01T11:25:23.122Z,11.15
2022-12-01T11:28:01.924Z,11.22
2022-12-01T11:30:37.666Z,11.31
2022-12-01T11:33:18.540Z,11.30
2022-12-01T11:35:51.903Z,11.34
2022-12-01T11:38:32.958Z,11.37
2022-12-01T11:41:06.568Z,11.16
2022-12-01T11:43:47.663Z,11.15
2022-12-01T11:46:33.183Z,11.16
2022-12-01T11:49:06.718Z,11.10
2022-12-01T11:51:40.010Z,11.00
2022-12-01T11:54:20.452Z,11.06
2022-12-01T11:57:17.486Z,10.96
2022-12-01T11:59:42.308Z,10.96
2022-12-01T12:02:26.932Z,10.97
2022-12-01T12:05:37.193Z,10.85
2022-12-01T12:08:18.280Z,10.92
2022-12-01T12:11:02.778Z,10.93
2022-12-01T12:13:55.057Z,10.94
2022-12-01T12:16:35.926Z,10.79
2022-12-01T12:19:33.692Z,10.84
2022-12-01T12:22:24.754Z,10.77
2022-12-01T12:25:05.541Z,10.79
2022-12-01T12:27:49.877Z,10.78
2022-12-01T12:30:26.381Z,10.62
2022-12-01T12:33:23.145Z,10.53
2022-12-01T12:36:03.290Z,10.51
2022-12-01T12:38:49.033Z,10.43
2022-12-01T12:41:31.505Z,10.32
2022-12-01T12:44:36.641Z,10.30
2022-12-01T12:47:22.311Z,10.21
2022-12-01T12:50:01.828Z,10.28
2022-12-01T12:52:40.822Z,10.31
2022-12-01T12:55:22.930Z,10.21
2022-12-01T12:57:57.010Z,10.20
2022-12-01T13:00:29.326Z,10.24
2022-12-01T13:03:06.363Z,10.17
2022-12-01T13:05:44.335Z,10.10
2022-12-01T13:08:19.054Z,10.00
2022-12-01T13:11:00.840Z,9.85
2022-12-01T13:13:37.702Z,9.67
2022-12-01T13:16:16.267Z,9.62
2022-12-01T13:18:50.552Z,9.59
2022-12-01T13:21:24.056Z,9.56
2022-12-01T13:23:55.471Z,9.48
2022-12-01T13:26:28.634Z,9.40
2022-12-01T13:29:00.807Z,9.38
2022-12-01T13:31:34.086Z,9.36
2022-12-01T13:34:08.873Z,9.11
2022-12-01T13:36:46.733Z,9.10
2022-12-01T13:39:22.743Z,8.97
2022-12-01T13:42:10.537Z,8.78
2022-12-01T13:44:45.834Z,8.70
2022-12-01T13:47:35.754Z,8.58
2022-12-01T13:50:35.573Z,8.47
2022-12-01T13:53:38.634Z,8.32
2022-12-01T13:56:28.143Z,8.18
2022-12-01T13:59:01.239Z,8.13
2022-12-01T14:01:52.182Z,8.00
2022-12-01T14:04:37.327Z,7.86
2022-12-01T14:07:29.601Z,7.70
2022-12-01T14:10:32.026Z,7.58
2022-12-01T14:13:12.611Z,7.52
2022-12-01T14:15:46.167Z,7.42
2022-12-01T14:18:35.998Z,7.27
2022-12-01T14:21:11.411Z,7.18
2022-12-01T14:24:01.156Z,7.05
2022-12-01T14:26:34.830Z,6.95
2022-12-01T14:29:26.899Z,6.92
2022-12-01T14:32:26.809Z,6.87
2022-12-01T14:35:15.716Z,6.78
2022-12-01T14:37:53.437Z,6.67
2022-12-01T14:40:31.058Z,6.55
2022-12-01T14:43:17.377Z,6.49
2022-12-01T14:46:04.364Z,6.38
2022-12-01T14:48:40.514Z,6.27
2022-12-01T14:51:30.085Z,6.23
2022-12-01T14:54:02.564Z,6.09
2022-12-01T14:56:39.392Z,5.99
2022-12-01T14:59:18.622Z,5.89
2022-12-01T15:01:51.554Z,5.81
2022-12-01T15:04:22.243Z,5.70
2022-12-01T15:06:59.551Z,5.58
2022-12-01T15:09:34.616Z,5.51
2022-12-01T15:12:07.981Z,5.41
2022-12-01T15:14:40.355Z,5.28
2022-12-01T15:17:10.479Z,5.23
2022-12-01T15:19:44.166Z,5.16
2022-12-01T15:22:23.289Z,5.06
2022-12-01T15:24:53.412Z,5.01
2022-12-01T15:27:29.687Z,4.88
2022-12-01T15:30:04.938Z,4.84
2022-12-01T15:32:42.745Z,4.75
2022-12-01T15:35:21.480Z,4.68
2022-12-01T15:37:55.360Z,4.61
2022-12-01T15:41:13.280Z,4.54
2022-12-01T15:43:21.798Z,4.41
2022-12-01T15:45:59.453Z,4.35
2022-12-01T15:48:34.384Z,4.30
2022-12-01T15:51:11.421Z,4.28
2022-12-01T15:53:50.811Z,4.25
2022-12-01T15:56:27.996Z,4.21
2022-12-01T15:59:03.588Z,4.14
2022-12-01T16:01:39.977Z,4.10
2022-12-01T16:04:20.547Z,4.05
2022-12-01T16:07:01.184Z,4.01
2022-12-01T16:09:38.605Z,3.95
2022-12-01T16:12:22.864Z,3.91
2022-12-01T16:14:57.054Z,3.88
2022-12-01T16:17:28.229Z,3.81
2022-12-01T16:20:26.871Z,3.78
2022-12-01T16:23:00.020Z,3.75
2022-12-01T16:25:43.579Z,3.70
2022-12-01T16:28:25.273Z,3.65
2022-12-01T16:30:58.445Z,3.60
2022-12-01T16:33:30.565Z,3.55
2022-12-01T16:36:07.079Z,3.49
2022-12-01T16:38:42.752Z,3.46
2022-12-01T16:41:38.299Z,3.42
2022-12-01T16:44:28.132Z,3.26
2022-12-01T16:46:59.261Z,3.34
2022-12-01T16:49:35.054Z,3.36
2022-12-01T16:52:42.502Z,3.35
2022-12-01T16:54:58.598Z,3.32
2022-12-01T16:57:38.262Z,3.30
2022-12-01T17:00:11.260Z,3.26
2022-12-01T17:02:43.653Z,3.23
2022-12-01T17:05:16.747Z,3.19
2022-12-01T17:07:54.603Z,3.19
2022-12-01T17:10:27.404Z,3.12
2022-12-01T17:13:02.931Z,3.16
2022-12-01T17:15:36.472Z,3.16
2022-12-01T17:18:12.022Z,3.16
2022-12-01T17:20:44.738Z,3.13
2022-12-01T17:23:15.106Z,3.08
2022-12-01T17:25:45.479Z,3.10
2022-12-01T17:28:18.156Z,3.09
2022-12-01T17:30:48.354Z,3.06
2022-12-01T17:33:19.675Z,3.00
2022-12-01T17:35:52.832Z,3.01
2022-12-01T17:38:24.175Z,3.01
2022-12-01T17:41:03.366Z,3.03
2022-12-01T17:43:39.528Z,3.04
2022-12-01T17:46:13.852Z,2.98
2022-12-01T17:48:47.307Z,3.05
2022-12-01T17:51:18.212Z,3.03
2022-12-01T17:53:48.309Z,3.00
2022-12-01T17:56:20.735Z,3.01
2022-12-01T17:58:55.038Z,2.97
2022-12-01T18:01:30.006Z,2.97
2022-12-01T18:04:01.339Z,2.86
2022-12-01T18:06:31.555Z,2.80
2022-12-01T18:09:02.949Z,2.74
2022-12-01T18:11:34.246Z,2.62
2022-12-01T18:14:07.060Z,2.61
2022-12-01T18:16:38.604Z,2.53
2022-12-01T18:19:12.828Z,2.50
2022-12-01T18:21:45.763Z,2.46
2022-12-01T18:24:18.700Z,2.45
2022-12-01T18:26:48.904Z,2.43
2022-12-01T18:29:28.819Z,2.41
2022-12-01T18:31:59.764Z,2.31
2022-12-01T18:34:31.250Z,2.37
2022-12-01T18:37:01.374Z,2.36
2022-12-01T18:39:31.876Z,2.27
2022-12-01T18:42:02.150Z,2.30
2022-12-01T18:44:43.285Z,2.28
2022-12-01T18:47:16.464Z,2.22
2022-12-01T18:49:47.111Z,2.16
2022-12-01T18:52:20.144Z,2.13
2022-12-01T18:54:53.240Z,2.09
2022-12-01T18:57:23.453Z,1.99
2022-12-01T18:59:59.038Z,2.05
2022-12-01T19:02:32.228Z,2.04
2022-12-01T19:05:02.643Z,2.03
2022-12-01T19:07:33.840Z,2.04
2022-12-01T19:10:06.540Z,2.03
2022-12-01T19:12:41.019Z,2.09
2022-12-01T19:15:22.849Z,2.11
2022-12-01T19:17:54.650Z,2.12
2022-12-01T19:20:24.737Z,2.11
2022-12-01T19:22:55.213Z,2.08
2022-12-01T19:25:25.431Z,2.04
2022-12-01T19:27:55.637Z,2.00
2022-12-01T19:30:28.479Z,1.99
2022-12-01T19:32:59.012Z,1.98
2022-12-01T19:35:30.293Z,1.88
2022-12-01T19:38:03.683Z,1.87
2022-12-01T19:40:33.981Z,1.77
2022-12-01T19:43:09.546Z,1.68
2022-12-01T19:45:43.835Z,1.64
2022-12-01T19:48:17.828Z,1.57
2022-12-01T19:50:47.733Z,1.55
2022-12-01T19:53:20.893Z,1.53
2022-12-01T19:55:53.876Z,1.48
2022-12-01T19:58:25.645Z,1.43
2022-12-01T20:00:58.437Z,1.42
2022-12-01T20:03:28.677Z,1.39
2022-12-01T20:06:06.163Z,1.37
2022-12-01T20:08:36.728Z,1.34
2022-12-01T20:11:10.275Z,1.30
2022-12-01T20:13:42.149Z,1.32
2022-12-01T20:16:17.512Z,1.31
2022-12-01T20:18:48.006Z,1.31
2022-12-01T20:21:20.748Z,1.31
2022-12-01T20:23:53.166Z,1.31
2022-12-01T20:26:28.959Z,1.33
2022-12-01T20:29:03.362Z,1.38
2022-12-01T20:31:40.822Z,1.35
2022-12-01T20:34:13.091Z,1.31
2022-12-01T20:36:44.864Z,1.30
2022-12-01T20:39:15.845Z,1.32
2022-12-01T20:41:48.371Z,1.23
2022-12-01T20:44:20.354Z,1.46
2022-12-01T20:46:53.032Z,1.49
2022-12-01T20:49:30.773Z,1.51
2022-12-01T20:52:01.936Z,1.53
2022-12-01T20:54:31.982Z,1.56
2022-12-01T20:57:02.238Z,1.58
2022-12-01T20:59:32.469Z,1.58
2022-12-01T21:02:05.256Z,1.57
2022-12-01T21:04:35.296Z,1.57
2022-12-01T21:07:12.592Z,1.55
2022-12-01T21:09:42.908Z,1.51
2022-12-01T21:12:29.475Z,1.45
2022-12-01T21:15:09.098Z,1.36
2022-12-01T21:17:46.795Z,1.33
2022-12-01T21:20:25.271Z,1.26
2022-12-01T21:22:56.530Z,1.21
2022-12-01T21:25:27.205Z,1.21
2022-12-01T21:28:02.771Z,1.20
2022-12-01T21:30:33.973Z,1.22
2022-12-01T21:33:19.868Z,1.22
2022-12-01T21:35:53.207Z,1.25
2022-12-01T21:38:23.597Z,1.24
2022-12-01T21:40:56.162Z,1.24
2022-12-01T21:43:33.882Z,1.34
2022-12-01T21:46:18.035Z,1.36
2022-12-01T21:48:52.959Z,1.35
2022-12-01T21:51:30.651Z,1.39
2022-12-01T21:54:01.233Z,1.43
2022-12-01T21:56:37.294Z,1.30
2022-12-01T21:59:18.306Z,1.42
2022-12-01T22:01:49.884Z,1.44
2022-12-01T22:04:24.037Z,1.44
2022-12-01T22:06:56.151Z,1.46
2022-12-01T22:09:30.186Z,1.45
2022-12-01T22:12:02.857Z,1.50
2022-12-01T22:14:45.047Z,1.52
2022-12-01T22:17:21.469Z,1.57
2022-12-01T22:19:59.025Z,1.56
2022-12-01T22:22:30.565Z,1.54
2022-12-01T22:25:11.830Z,1.55
2022-12-01T22:27:44.075Z,1.55
2022-12-01T22:30:20.451Z,1.54
2022-12-01T22:33:01.534Z,1.60
2022-12-01T22:35:48.633Z,1.59
2022-12-01T22:38:24.720Z,1.60
2022-12-01T22:40:59.967Z,1.58
2022-12-01T22:43:43.158Z,1.59
2022-12-01T22:46:39.843Z,1.57
2022-12-01T22:49:20.365Z,1.59
2022-12-01T22:51:53.712Z,1.56
2022-12-01T22:54:40.483Z,1.54
2022-12-01T22:57:31.234Z,1.54
2022-12-01T23:00:04.490Z,1.48
2022-12-01T23:02:37.322Z,1.40
2022-12-01T23:05:21.978Z,1.37
2022-12-01T23:07:56.290Z,1.31
2022-12-01T23:10:28.252Z,1.27
2022-12-01T23:13:02.418Z,1.24
2022-12-01T23:15:36.436Z,1.22
2022-12-01T23:18:14.672Z,1.20
2022-12-01T23:20:46.471Z,1.16
2022-12-01T23:23:21.458Z,1.12
2022-12-01T23:25:54.207Z,1.09
2022-12-01T23:28:30.127Z,1.01
2022-12-01T23:31:03.694Z,1.05
2022-12-01T23:33:37.632Z,1.02
2022-12-01T23:36:19.333Z,1.01
2022-12-01T23:38:54.680Z,1.01
2022-12-01T23:41:36.136Z,0.98
2022-12-01T23:44:14.820Z,0.96
2022-12-01T23:46:45.095Z,0.87
2022-12-01T23:49:18.951Z,0.89
2022-12-01T23:51:52.156Z,0.88
2022-12-01T23:54:29.963Z,0.82
2022-12-01T23:57:05.335Z,0.82
2022-12-01T23:59:35.497Z,0.77
